sensor_id;sensor_type;location;lat;lon;timestamp;P1;P2;P0
80628;PMS5003;69983;42.370;-71.210;2024-01-30T00:00:48;389;309;
80628;PMS5003;69983;42.370;-71.210;2024-01-30T00:02:51;477;352;
80628;PMS5003;69983;42.370;-71.210;2024-01-30T00:04:48;472;357;
80628;PMS5003;69983;42.370;-71.210;2024-01-30T00:06:50;529;406;
80628;PMS5003;69983;42.370;-71.210;2024-01-30T00:08:49;593;452;
80628;PMS5003;69983;42.370;-71.210;2024-01-30T00:10:51;628;463;
80628;PMS5003;69983;42.370;-71.210;2024-01-30T00:12:55;634;486;
80628;PMS5003;69983;42.370;-71.210;2024-01-30T00:14:50;577;461;
80628;PMS5003;69983;42.370;-71.210;2024-01-30T00:16:51;521;399;
80628;PMS5003;69983;42.370;-71.210;2024-01-30T00:18:51;497;385;
80628;PMS5003;69983;42.370;-71.210;2024-01-30T00:20:51;525;420;
80628;PMS5003;69983;42.370;-71.210;2024-01-30T00:22:52;501;381;
80628;PMS5003;69983;42.370;-71.210;2024-01-30T00:24:52;398;318;
80628;PMS5003;69983;42.370;-71.210;2024-01-30T00:26:53;359;295;
80628;PMS5003;69983;42.370;-71.210;2024-01-30T00:28:53;313;252;
80628;PMS5003;69983;42.370;-71.210;2024-01-30T00:30:54;272;221;
80628;PMS5003;69983;42.370;-71.210;2024-01-30T00:32:54;248;201;
80628;PMS5003;69983;42.370;-71.210;2024-01-30T00:34:54;202;171;
80628;PMS5003;69983;42.370;-71.210;2024-01-30T00:36:55;194;158;
80628;PMS5003;69983;42.370;-71.210;2024-01-30T00:38:55;174;141;
80628;PMS5003;69983;42.370;-71.210;2024-01-30T00:40:55;155;128;
80628;PMS5003;69983;42.370;-71.210;2024-01-30T00:42:55;158;127;
80628;PMS5003;69983;42.370;-71.210;2024-01-30T00:44:56;261;210;
80628;PMS5003;69983;42.370;-71.210;2024-01-30T00:46:56;248;190;
80628;PMS5003;69983;42.370;-71.210;2024-01-30T00:48:57;193;160;
80628;PMS5003;69983;42.370;-71.210;2024-01-30T00:50:58;252;217;
80628;PMS5003;69983;42.370;-71.210;2024-01-30T00:52:58;336;283;
80628;PMS5003;69983;42.370;-71.210;2024-01-30T00:54:59;271;231;
80628;PMS5003;69983;42.370;-71.210;2024-01-30T00:56:59;222;193;
80628;PMS5003;69983;42.370;-71.210;2024-01-30T00:58:59;202;176;
80628;PMS5003;69983;42.370;-71.210;2024-01-30T01:00:59;183;150;
80628;PMS5003;69983;42.370;-71.210;2024-01-30T01:02:59;164;140;
80628;PMS5003;69983;42.370;-71.210;2024-01-30T01:05:00;153;131;
80628;PMS5003;69983;42.370;-71.210;2024-01-30T01:07:01;155;139;
80628;PMS5003;69983;42.370;-71.210;2024-01-30T01:09:01;226;188;
80628;PMS5003;69983;42.370;-71.210;2024-01-30T01:11:02;197;180;
80628;PMS5003;69983;42.370;-71.210;2024-01-30T01:13:02;314;258;
80628;PMS5003;69983;42.370;-71.210;2024-01-30T01:15:04;480;402;
80628;PMS5003;69983;42.370;-71.210;2024-01-30T01:17:03;437;363;
80628;PMS5003;69983;42.370;-71.210;2024-01-30T01:19:04;411;330;
80628;PMS5003;69983;42.370;-71.210;2024-01-30T01:21:05;371;310;
80628;PMS5003;69983;42.370;-71.210;2024-01-30T01:23:05;336;280;
80628;PMS5003;69983;42.370;-71.210;2024-01-30T01:25:06;317;267;
80628;PMS5003;69983;42.370;-71.210;2024-01-30T01:27:06;354;273;
80628;PMS5003;69983;42.370;-71.210;2024-01-30T01:29:06;354;261;
80628;PMS5003;69983;42.370;-71.210;2024-01-30T01:31:07;360;257;
80628;PMS5003;69983;42.370;-71.210;2024-01-30T01:33:08;326;234;
80628;PMS5003;69983;42.370;-71.210;2024-01-30T01:35:09;296;212;
80628;PMS5003;69983;42.370;-71.210;2024-01-30T01:37:08;249;190;
80628;PMS5003;69983;42.370;-71.210;2024-01-30T01:39:09;224;173;
80628;PMS5003;69983;42.370;-71.210;2024-01-30T01:41:09;456;386;
80628;PMS5003;69983;42.370;-71.210;2024-01-30T01:43:10;369;285;
80628;PMS5003;69983;42.370;-71.210;2024-01-30T01:45:13;325;260;
80628;PMS5003;69983;42.370;-71.210;2024-01-30T01:47:11;277;243;
80628;PMS5003;69983;42.370;-71.210;2024-01-30T01:49:11;275;227;
80628;PMS5003;69983;42.370;-71.210;2024-01-30T01:51:12;282;219;
80628;PMS5003;69983;42.370;-71.210;2024-01-30T01:53:12;280;204;
80628;PMS5003;69983;42.370;-71.210;2024-01-30T01:55:14;274;203;
80628;PMS5003;69983;42.370;-71.210;2024-01-30T01:57:14;229;178;
80628;PMS5003;69983;42.370;-71.210;2024-01-30T01:59:14;458;375;
80628;PMS5003;69983;42.370;-71.210;2024-01-30T02:01:15;480;366;
80628;PMS5003;69983;42.370;-71.210;2024-01-30T02:03:15;405;311;
80628;PMS5003;69983;42.370;-71.210;2024-01-30T02:05:17;403;299;
80628;PMS5003;69983;42.370;-71.210;2024-01-30T02:07:16;351;269;
80628;PMS5003;69983;42.370;-71.210;2024-01-30T02:09:22;315;241;
80628;PMS5003;69983;42.370;-71.210;2024-01-30T02:11:17;323;244;
80628;PMS5003;69983;42.370;-71.210;2024-01-30T02:13:17;266;207;
80628;PMS5003;69983;42.370;-71.210;2024-01-30T02:15:19;254;192;
80628;PMS5003;69983;42.370;-71.210;2024-01-30T02:17:18;235;172;
80628;PMS5003;69983;42.370;-71.210;2024-01-30T02:19:19;210;163;
80628;PMS5003;69983;42.370;-71.210;2024-01-30T02:21:19;201;149;
80628;PMS5003;69983;42.370;-71.210;2024-01-30T02:23:19;174;131;
80628;PMS5003;69983;42.370;-71.210;2024-01-30T02:25:19;239;193;
80628;PMS5003;69983;42.370;-71.210;2024-01-30T02:27:20;220;174;
80628;PMS5003;69983;42.370;-71.210;2024-01-30T02:29:21;268;217;
80628;PMS5003;69983;42.370;-71.210;2024-01-30T02:31:21;342;267;
80628;PMS5003;69983;42.370;-71.210;2024-01-30T02:33:21;404;334;
80628;PMS5003;69983;42.370;-71.210;2024-01-30T02:35:24;348;276;
80628;PMS5003;69983;42.370;-71.210;2024-01-30T02:37:22;314;252;
80628;PMS5003;69983;42.370;-71.210;2024-01-30T02:39:23;276;218;
80628;PMS5003;69983;42.370;-71.210;2024-01-30T02:41:24;230;193;
80628;PMS5003;69983;42.370;-71.210;2024-01-30T02:43:25;209;172;
80628;PMS5003;69983;42.370;-71.210;2024-01-30T02:45:25;402;325;
80628;PMS5003;69983;42.370;-71.210;2024-01-30T02:47:26;319;263;
80628;PMS5003;69983;42.370;-71.210;2024-01-30T02:49:26;273;227;
80628;PMS5003;69983;42.370;-71.210;2024-01-30T02:51:26;236;197;
80628;PMS5003;69983;42.370;-71.210;2024-01-30T02:53:26;219;176;
80628;PMS5003;69983;42.370;-71.210;2024-01-30T02:55:28;201;170;
80628;PMS5003;69983;42.370;-71.210;2024-01-30T02:57:28;384;309;
80628;PMS5003;69983;42.370;-71.210;2024-01-30T02:59:29;344;270;
80628;PMS5003;69983;42.370;-71.210;2024-01-30T03:01:29;279;242;
80628;PMS5003;69983;42.370;-71.210;2024-01-30T03:03:31;699;542;
80628;PMS5003;69983;42.370;-71.210;2024-01-30T03:05:30;340;292;
80628;PMS5003;69983;42.370;-71.210;2024-01-30T03:07:30;450;346;
80628;PMS5003;69983;42.370;-71.210;2024-01-30T03:09:31;397;324;
80628;PMS5003;69983;42.370;-71.210;2024-01-30T03:11:37;309;259;
80628;PMS5003;69983;42.370;-71.210;2024-01-30T03:13:33;270;211;
80628;PMS5003;69983;42.370;-71.210;2024-01-30T03:15:33;246;210;
80628;PMS5003;69983;42.370;-71.210;2024-01-30T03:17:33;206;172;
80628;PMS5003;69983;42.370;-71.210;2024-01-30T03:19:34;195;163;
80628;PMS5003;69983;42.370;-71.210;2024-01-30T03:21:34;428;347;
80628;PMS5003;69983;42.370;-71.210;2024-01-30T03:23:35;308;256;
80628;PMS5003;69983;42.370;-71.210;2024-01-30T03:25:35;426;326;
80628;PMS5003;69983;42.370;-71.210;2024-01-30T03:27:36;405;328;
80628;PMS5003;69983;42.370;-71.210;2024-01-30T03:29:37;573;468;
80628;PMS5003;69983;42.370;-71.210;2024-01-30T03:31:36;453;373;
80628;PMS5003;69983;42.370;-71.210;2024-01-30T03:33:37;503;408;
80628;PMS5003;69983;42.370;-71.210;2024-01-30T03:35:37;609;508;
80628;PMS5003;69983;42.370;-71.210;2024-01-30T03:37:37;553;453;
80628;PMS5003;69983;42.370;-71.210;2024-01-30T03:39:38;475;375;
80628;PMS5003;69983;42.370;-71.210;2024-01-30T03:41:38;424;334;
80628;PMS5003;69983;42.370;-71.210;2024-01-30T03:43:40;363;296;
80628;PMS5003;69983;42.370;-71.210;2024-01-30T03:45:39;323;262;
80628;PMS5003;69983;42.370;-71.210;2024-01-30T03:47:40;287;239;
80628;PMS5003;69983;42.370;-71.210;2024-01-30T03:49:40;299;259;
80628;PMS5003;69983;42.370;-71.210;2024-01-30T03:51:40;278;240;
80628;PMS5003;69983;42.370;-71.210;2024-01-30T03:53:41;274;216;
80628;PMS5003;69983;42.370;-71.210;2024-01-30T03:55:41;248;201;
80628;PMS5003;69983;42.370;-71.210;2024-01-30T03:57:41;223;193;
80628;PMS5003;69983;42.370;-71.210;2024-01-30T03:59:42;312;247;
80628;PMS5003;69983;42.370;-71.210;2024-01-30T04:01:43;263;222;
80628;PMS5003;69983;42.370;-71.210;2024-01-30T04:03:44;251;211;
80628;PMS5003;69983;42.370;-71.210;2024-01-30T04:05:44;229;190;
80628;PMS5003;69983;42.370;-71.210;2024-01-30T04:07:45;187;168;
80628;PMS5003;69983;42.370;-71.210;2024-01-30T04:09:46;191;170;
80628;PMS5003;69983;42.370;-71.210;2024-01-30T04:11:46;178;155;
80628;PMS5003;69983;42.370;-71.210;2024-01-30T04:13:46;190;156;
80628;PMS5003;69983;42.370;-71.210;2024-01-30T04:15:46;153;127;
80628;PMS5003;69983;42.370;-71.210;2024-01-30T04:17:47;251;214;
80628;PMS5003;69983;42.370;-71.210;2024-01-30T04:19:48;239;210;
80628;PMS5003;69983;42.370;-71.210;2024-01-30T04:21:49;214;178;
80628;PMS5003;69983;42.370;-71.210;2024-01-30T04:23:50;188;153;
80628;PMS5003;69983;42.370;-71.210;2024-01-30T04:25:50;171;148;
80628;PMS5003;69983;42.370;-71.210;2024-01-30T04:27:50;381;327;
80628;PMS5003;69983;42.370;-71.210;2024-01-30T04:29:50;322;264;
80628;PMS5003;69983;42.370;-71.210;2024-01-30T04:31:51;320;260;
80628;PMS5003;69983;42.370;-71.210;2024-01-30T04:33:52;289;236;
80628;PMS5003;69983;42.370;-71.210;2024-01-30T04:35:52;269;216;
80628;PMS5003;69983;42.370;-71.210;2024-01-30T04:37:52;241;209;
80628;PMS5003;69983;42.370;-71.210;2024-01-30T04:39:53;196;173;
80628;PMS5003;69983;42.370;-71.210;2024-01-30T04:41:54;180;155;
80628;PMS5003;69983;42.370;-71.210;2024-01-30T04:43:55;182;151;
80628;PMS5003;69983;42.370;-71.210;2024-01-30T04:45:55;155;131;
80628;PMS5003;69983;42.370;-71.210;2024-01-30T04:47:55;158;136;
80628;PMS5003;69983;42.370;-71.210;2024-01-30T04:49:56;137;117;
80628;PMS5003;69983;42.370;-71.210;2024-01-30T04:51:57;128;114;
80628;PMS5003;69983;42.370;-71.210;2024-01-30T04:53:57;124;104;
80628;PMS5003;69983;42.370;-71.210;2024-01-30T04:55:58;117;103;
80628;PMS5003;69983;42.370;-71.210;2024-01-30T04:57:58;109;99;
80628;PMS5003;69983;42.370;-71.210;2024-01-30T04:59:59;113;93;
80628;PMS5003;69983;42.370;-71.210;2024-01-30T05:01:59;103;88;
80628;PMS5003;69983;42.370;-71.210;2024-01-30T05:04:00;243;201;
80628;PMS5003;69983;42.370;-71.210;2024-01-30T05:06:00;231;198;
80628;PMS5003;69983;42.370;-71.210;2024-01-30T05:08:00;216;190;
80628;PMS5003;69983;42.370;-71.210;2024-01-30T05:10:01;196;168;
80628;PMS5003;69983;42.370;-71.210;2024-01-30T05:12:01;408;338;
80628;PMS5003;69983;42.370;-71.210;2024-01-30T05:14:01;310;250;
80628;PMS5003;69983;42.370;-71.210;2024-01-30T05:16:02;255;220;
80628;PMS5003;69983;42.370;-71.210;2024-01-30T05:18:02;349;266;
80628;PMS5003;69983;42.370;-71.210;2024-01-30T05:20:03;387;323;
80628;PMS5003;69983;42.370;-71.210;2024-01-30T05:22:03;309;256;
80628;PMS5003;69983;42.370;-71.210;2024-01-30T05:24:04;269;223;
80628;PMS5003;69983;42.370;-71.210;2024-01-30T05:26:04;231;189;
80628;PMS5003;69983;42.370;-71.210;2024-01-30T05:28:05;212;174;
80628;PMS5003;69983;42.370;-71.210;2024-01-30T05:30:06;321;266;
80628;PMS5003;69983;42.370;-71.210;2024-01-30T05:32:06;266;222;
80628;PMS5003;69983;42.370;-71.210;2024-01-30T05:34:07;243;206;
80628;PMS5003;69983;42.370;-71.210;2024-01-30T05:36:06;199;169;
80628;PMS5003;69983;42.370;-71.210;2024-01-30T05:38:07;366;305;
80628;PMS5003;69983;42.370;-71.210;2024-01-30T05:40:08;338;274;
80628;PMS5003;69983;42.370;-71.210;2024-01-30T05:42:08;291;241;
80628;PMS5003;69983;42.370;-71.210;2024-01-30T05:44:09;277;219;
80628;PMS5003;69983;42.370;-71.210;2024-01-30T05:46:09;231;189;
80628;PMS5003;69983;42.370;-71.210;2024-01-30T05:48:10;213;179;
80628;PMS5003;69983;42.370;-71.210;2024-01-30T05:50:09;177;151;
80628;PMS5003;69983;42.370;-71.210;2024-01-30T05:52:09;162;142;
80628;PMS5003;69983;42.370;-71.210;2024-01-30T05:54:11;139;117;
80628;PMS5003;69983;42.370;-71.210;2024-01-30T05:56:11;140;114;
80628;PMS5003;69983;42.370;-71.210;2024-01-30T05:58:11;120;107;
80628;PMS5003;69983;42.370;-71.210;2024-01-30T06:00:12;115;99;
80628;PMS5003;69983;42.370;-71.210;2024-01-30T06:02:16;102;88;
80628;PMS5003;69983;42.370;-71.210;2024-01-30T06:04:12;108;84;
80628;PMS5003;69983;42.370;-71.210;2024-01-30T06:06:12;89;80;
80628;PMS5003;69983;42.370;-71.210;2024-01-30T06:08:13;86;70;
80628;PMS5003;69983;42.370;-71.210;2024-01-30T06:10:13;219;189;
80628;PMS5003;69983;42.370;-71.210;2024-01-30T06:12:14;182;151;
80628;PMS5003;69983;42.370;-71.210;2024-01-30T06:14:15;166;134;
80628;PMS5003;69983;42.370;-71.210;2024-01-30T06:16:15;138;121;
80628;PMS5003;69983;42.370;-71.210;2024-01-30T06:18:15;116;99;
80628;PMS5003;69983;42.370;-71.210;2024-01-30T06:20:16;101;89;
80628;PMS5003;69983;42.370;-71.210;2024-01-30T06:22:16;108;90;
80628;PMS5003;69983;42.370;-71.210;2024-01-30T06:24:16;97;80;
80628;PMS5003;69983;42.370;-71.210;2024-01-30T06:26:16;398;322;
80628;PMS5003;69983;42.370;-71.210;2024-01-30T06:28:17;358;308;
80628;PMS5003;69983;42.370;-71.210;2024-01-30T06:30:18;470;398;
80628;PMS5003;69983;42.370;-71.210;2024-01-30T06:32:18;478;387;
80628;PMS5003;69983;42.370;-71.210;2024-01-30T06:34:19;433;351;
80628;PMS5003;69983;42.370;-71.210;2024-01-30T06:36:19;393;333;
80628;PMS5003;69983;42.370;-71.210;2024-01-30T06:38:20;432;348;
80628;PMS5003;69983;42.370;-71.210;2024-01-30T06:40:20;346;294;
80628;PMS5003;69983;42.370;-71.210;2024-01-30T06:42:21;311;269;
80628;PMS5003;69983;42.370;-71.210;2024-01-30T06:44:21;268;239;
80628;PMS5003;69983;42.370;-71.210;2024-01-30T06:46:22;264;227;
80628;PMS5003;69983;42.370;-71.210;2024-01-30T06:48:22;242;209;
80628;PMS5003;69983;42.370;-71.210;2024-01-30T06:50:23;206;184;
80628;PMS5003;69983;42.370;-71.210;2024-01-30T06:52:24;185;161;
80628;PMS5003;69983;42.370;-71.210;2024-01-30T06:54:24;179;161;
80628;PMS5003;69983;42.370;-71.210;2024-01-30T06:56:25;167;140;
80628;PMS5003;69983;42.370;-71.210;2024-01-30T06:58:26;154;126;
80628;PMS5003;69983;42.370;-71.210;2024-01-30T07:00:26;150;121;
80628;PMS5003;69983;42.370;-71.210;2024-01-30T07:02:27;139;116;
80628;PMS5003;69983;42.370;-71.210;2024-01-30T07:04:31;121;108;
80628;PMS5003;69983;42.370;-71.210;2024-01-30T07:06:28;129;102;
80628;PMS5003;69983;42.370;-71.210;2024-01-30T07:08:29;99;88;
80628;PMS5003;69983;42.370;-71.210;2024-01-30T07:10:34;102;88;
80628;PMS5003;69983;42.370;-71.210;2024-01-30T07:12:30;100;90;
80628;PMS5003;69983;42.370;-71.210;2024-01-30T07:14:31;89;79;
80628;PMS5003;69983;42.370;-71.210;2024-01-30T07:16:31;90;80;
80628;PMS5003;69983;42.370;-71.210;2024-01-30T07:18:32;90;75;
80628;PMS5003;69983;42.370;-71.210;2024-01-30T07:20:32;82;70;
80628;PMS5003;69983;42.370;-71.210;2024-01-30T07:22:37;77;65;
80628;PMS5003;69983;42.370;-71.210;2024-01-30T07:24:33;75;63;
80628;PMS5003;69983;42.370;-71.210;2024-01-30T07:26:34;70;61;
80628;PMS5003;69983;42.370;-71.210;2024-01-30T07:28:34;68;57;
80628;PMS5003;69983;42.370;-71.210;2024-01-30T07:30:34;68;64;
80628;PMS5003;69983;42.370;-71.210;2024-01-30T07:32:34;64;55;
80628;PMS5003;69983;42.370;-71.210;2024-01-30T07:34:35;64;54;
80628;PMS5003;69983;42.370;-71.210;2024-01-30T07:36:35;58;50;
80628;PMS5003;69983;42.370;-71.210;2024-01-30T07:38:35;52;46;
80628;PMS5003;69983;42.370;-71.210;2024-01-30T07:40:35;51;42;
80628;PMS5003;69983;42.370;-71.210;2024-01-30T07:42:36;48;44;
80628;PMS5003;69983;42.370;-71.210;2024-01-30T07:44:38;52;45;
80628;PMS5003;69983;42.370;-71.210;2024-01-30T07:46:36;46;42;
80628;PMS5003;69983;42.370;-71.210;2024-01-30T07:48:36;44;36;
80628;PMS5003;69983;42.370;-71.210;2024-01-30T07:50:37;48;39;
80628;PMS5003;69983;42.370;-71.210;2024-01-30T07:52:37;40;31;
80628;PMS5003;69983;42.370;-71.210;2024-01-30T07:54:49;41;34;
80628;PMS5003;69983;42.370;-71.210;2024-01-30T07:56:38;50;35;
80628;PMS5003;69983;42.370;-71.210;2024-01-30T07:58:39;37;27;
80628;PMS5003;69983;42.370;-71.210;2024-01-30T08:00:40;34;29;
80628;PMS5003;69983;42.370;-71.210;2024-01-30T08:02:40;30;29;
80628;PMS5003;69983;42.370;-71.210;2024-01-30T08:04:41;28;24;
80628;PMS5003;69983;42.370;-71.210;2024-01-30T08:06:43;24;21;
80628;PMS5003;69983;42.370;-71.210;2024-01-30T08:08:42;28;24;
80628;PMS5003;69983;42.370;-71.210;2024-01-30T08:10:42;22;20;
80628;PMS5003;69983;42.370;-71.210;2024-01-30T08:12:42;27;20;
80628;PMS5003;69983;42.370;-71.210;2024-01-30T08:14:44;25;22;
80628;PMS5003;69983;42.370;-71.210;2024-01-30T08:16:44;23;18;
80628;PMS5003;69983;42.370;-71.210;2024-01-30T08:18:44;25;19;
80628;PMS5003;69983;42.370;-71.210;2024-01-30T08:20:45;20;18;
80628;PMS5003;69983;42.370;-71.210;2024-01-30T08:22:45;19;15;
80628;PMS5003;69983;42.370;-71.210;2024-01-30T08:24:45;22;18;
80628;PMS5003;69983;42.370;-71.210;2024-01-30T08:26:45;17;14;
80628;PMS5003;69983;42.370;-71.210;2024-01-30T08:28:45;19;16;
80628;PMS5003;69983;42.370;-71.210;2024-01-30T08:30:46;14;13;
80628;PMS5003;69983;42.370;-71.210;2024-01-30T08:32:46;13;13;
80628;PMS5003;69983;42.370;-71.210;2024-01-30T08:34:47;11;11;
80628;PMS5003;69983;42.370;-71.210;2024-01-30T08:36:46;15;13;
80628;PMS5003;69983;42.370;-71.210;2024-01-30T08:38:47;11;11;
80628;PMS5003;69983;42.370;-71.210;2024-01-30T08:40:47;11;9;
80628;PMS5003;69983;42.370;-71.210;2024-01-30T08:42:47;8;8;
80628;PMS5003;69983;42.370;-71.210;2024-01-30T08:44:48;12;10;
80628;PMS5003;69983;42.370;-71.210;2024-01-30T08:46:48;9;8;
80628;PMS5003;69983;42.370;-71.210;2024-01-30T08:48:48;10;10;
80628;PMS5003;69983;42.370;-71.210;2024-01-30T08:50:53;7;7;
80628;PMS5003;69983;42.370;-71.210;2024-01-30T08:52:48;13;8;
80628;PMS5003;69983;42.370;-71.210;2024-01-30T08:54:48;11;9;
80628;PMS5003;69983;42.370;-71.210;2024-01-30T08:56:48;11;8;
80628;PMS5003;69983;42.370;-71.210;2024-01-30T08:58:48;8;8;
80628;PMS5003;69983;42.370;-71.210;2024-01-30T09:00:49;5;5;
80628;PMS5003;69983;42.370;-71.210;2024-01-30T09:02:49;6;5;
80628;PMS5003;69983;42.370;-71.210;2024-01-30T09:04:50;4;4;
80628;PMS5003;69983;42.370;-71.210;2024-01-30T09:06:49;7;6;
80628;PMS5003;69983;42.370;-71.210;2024-01-30T09:08:49;6;5;
80628;PMS5003;69983;42.370;-71.210;2024-01-30T09:10:49;8;5;
80628;PMS5003;69983;42.370;-71.210;2024-01-30T09:12:54;6;6;
80628;PMS5003;69983;42.370;-71.210;2024-01-30T09:14:49;6;4;
80628;PMS5003;69983;42.370;-71.210;2024-01-30T09:16:49;4;4;
80628;PMS5003;69983;42.370;-71.210;2024-01-30T09:18:49;3;3;
80628;PMS5003;69983;42.370;-71.210;2024-01-30T09:20:49;4;3;
80628;PMS5003;69983;42.370;-71.210;2024-01-30T09:22:50;4;3;
80628;PMS5003;69983;42.370;-71.210;2024-01-30T09:24:50;4;3;
80628;PMS5003;69983;42.370;-71.210;2024-01-30T09:26:50;3;3;
80628;PMS5003;69983;42.370;-71.210;2024-01-30T09:28:50;4;2;
80628;PMS5003;69983;42.370;-71.210;2024-01-30T09:30:50;3;3;
80628;PMS5003;69983;42.370;-71.210;2024-01-30T09:32:50;2;2;
80628;PMS5003;69983;42.370;-71.210;2024-01-30T09:34:50;5;3;
80628;PMS5003;69983;42.370;-71.210;2024-01-30T09:36:50;2;2;
80628;PMS5003;69983;42.370;-71.210;2024-01-30T09:38:50;2;2;
80628;PMS5003;69983;42.370;-71.210;2024-01-30T09:40:52;3;1;
80628;PMS5003;69983;42.370;-71.210;2024-01-30T09:42:51;2;2;
80628;PMS5003;69983;42.370;-71.210;2024-01-30T09:44:52;2;2;
80628;PMS5003;69983;42.370;-71.210;2024-01-30T09:46:51;0;0;
80628;PMS5003;69983;42.370;-71.210;2024-01-30T09:48:51;2;2;
80628;PMS5003;69983;42.370;-71.210;2024-01-30T09:50:51;1;1;
80628;PMS5003;69983;42.370;-71.210;2024-01-30T09:52:51;1;1;
80628;PMS5003;69983;42.370;-71.210;2024-01-30T09:54:51;1;1;
80628;PMS5003;69983;42.370;-71.210;2024-01-30T09:56:51;1;1;
80628;PMS5003;69983;42.370;-71.210;2024-01-30T09:58:51;2;0;
80628;PMS5003;69983;42.370;-71.210;2024-01-30T10:00:51;1;1;
80628;PMS5003;69983;42.370;-71.210;2024-01-30T10:02:51;0;0;
80628;PMS5003;69983;42.370;-71.210;2024-01-30T10:04:52;1;1;
80628;PMS5003;69983;42.370;-71.210;2024-01-30T10:06:52;1;1;
80628;PMS5003;69983;42.370;-71.210;2024-01-30T10:08:52;0;0;
80628;PMS5003;69983;42.370;-71.210;2024-01-30T10:10:52;0;0;
80628;PMS5003;69983;42.370;-71.210;2024-01-30T10:12:52;0;0;
80628;PMS5003;69983;42.370;-71.210;2024-01-30T10:14:52;0;0;
80628;PMS5003;69983;42.370;-71.210;2024-01-30T10:16:52;0;0;
80628;PMS5003;69983;42.370;-71.210;2024-01-30T10:18:52;0;0;
80628;PMS5003;69983;42.370;-71.210;2024-01-30T10:20:52;0;0;
80628;PMS5003;69983;42.370;-71.210;2024-01-30T10:22:52;0;0;
80628;PMS5003;69983;42.370;-71.210;2024-01-30T10:24:53;1;1;
80628;PMS5003;69983;42.370;-71.210;2024-01-30T10:26:53;0;0;
80628;PMS5003;69983;42.370;-71.210;2024-01-30T10:28:53;1;0;
80628;PMS5003;69983;42.370;-71.210;2024-01-30T10:30:57;1;1;
80628;PMS5003;69983;42.370;-71.210;2024-01-30T10:32:53;0;0;
80628;PMS5003;69983;42.370;-71.210;2024-01-30T10:34:53;0;0;
80628;PMS5003;69983;42.370;-71.210;2024-01-30T10:36:55;0;0;
80628;PMS5003;69983;42.370;-71.210;2024-01-30T10:38:53;0;0;
80628;PMS5003;69983;42.370;-71.210;2024-01-30T10:40:53;0;0;
80628;PMS5003;69983;42.370;-71.210;2024-01-30T10:42:53;0;0;
80628;PMS5003;69983;42.370;-71.210;2024-01-30T10:44:56;0;0;
80628;PMS5003;69983;42.370;-71.210;2024-01-30T10:46:58;1;1;
80628;PMS5003;69983;42.370;-71.210;2024-01-30T10:48:56;0;0;
80628;PMS5003;69983;42.370;-71.210;2024-01-30T10:50:53;0;0;
80628;PMS5003;69983;42.370;-71.210;2024-01-30T10:52:54;0;0;
80628;PMS5003;69983;42.370;-71.210;2024-01-30T10:54:54;0;0;
80628;PMS5003;69983;42.370;-71.210;2024-01-30T10:56:54;0;0;
80628;PMS5003;69983;42.370;-71.210;2024-01-30T10:58:54;0;0;
80628;PMS5003;69983;42.370;-71.210;2024-01-30T11:00:54;0;0;
80628;PMS5003;69983;42.370;-71.210;2024-01-30T11:02:54;0;0;
80628;PMS5003;69983;42.370;-71.210;2024-01-30T11:04:55;0;0;
80628;PMS5003;69983;42.370;-71.210;2024-01-30T11:06:54;0;0;
80628;PMS5003;69983;42.370;-71.210;2024-01-30T11:09:02;0;0;
80628;PMS5003;69983;42.370;-71.210;2024-01-30T11:10:55;0;0;
80628;PMS5003;69983;42.370;-71.210;2024-01-30T11:12:54;0;0;
80628;PMS5003;69983;42.370;-71.210;2024-01-30T11:15:03;0;0;
80628;PMS5003;69983;42.370;-71.210;2024-01-30T11:16:57;0;0;
80628;PMS5003;69983;42.370;-71.210;2024-01-30T11:18:55;0;0;
80628;PMS5003;69983;42.370;-71.210;2024-01-30T11:20:56;0;0;
80628;PMS5003;69983;42.370;-71.210;2024-01-30T11:22:55;0;0;
80628;PMS5003;69983;42.370;-71.210;2024-01-30T11:24:55;0;0;
80628;PMS5003;69983;42.370;-71.210;2024-01-30T11:26:56;0;0;
80628;PMS5003;69983;42.370;-71.210;2024-01-30T11:28:55;0;0;
80628;PMS5003;69983;42.370;-71.210;2024-01-30T11:31:02;0;0;
80628;PMS5003;69983;42.370;-71.210;2024-01-30T11:32:59;0;0;
80628;PMS5003;69983;42.370;-71.210;2024-01-30T11:34:55;0;0;
80628;PMS5003;69983;42.370;-71.210;2024-01-30T11:36:56;0;0;
80628;PMS5003;69983;42.370;-71.210;2024-01-30T11:38:56;0;0;
80628;PMS5003;69983;42.370;-71.210;2024-01-30T11:40:56;0;0;
80628;PMS5003;69983;42.370;-71.210;2024-01-30T11:42:56;0;0;
80628;PMS5003;69983;42.370;-71.210;2024-01-30T11:44:56;0;0;
80628;PMS5003;69983;42.370;-71.210;2024-01-30T11:46:56;0;0;
80628;PMS5003;69983;42.370;-71.210;2024-01-30T11:48:56;0;0;
80628;PMS5003;69983;42.370;-71.210;2024-01-30T11:50:56;0;0;
80628;PMS5003;69983;42.370;-71.210;2024-01-30T11:52:56;0;0;
80628;PMS5003;69983;42.370;-71.210;2024-01-30T11:54:56;0;0;
80628;PMS5003;69983;42.370;-71.210;2024-01-30T11:56:57;0;0;
80628;PMS5003;69983;42.370;-71.210;2024-01-30T11:58:56;0;0;
80628;PMS5003;69983;42.370;-71.210;2024-01-30T12:00:56;0;0;
80628;PMS5003;69983;42.370;-71.210;2024-01-30T12:02:57;0;0;
80628;PMS5003;69983;42.370;-71.210;2024-01-30T12:04:56;0;0;
80628;PMS5003;69983;42.370;-71.210;2024-01-30T12:06:58;0;0;
80628;PMS5003;69983;42.370;-71.210;2024-01-30T12:08:57;0;0;
80628;PMS5003;69983;42.370;-71.210;2024-01-30T12:10:57;0;0;
80628;PMS5003;69983;42.370;-71.210;2024-01-30T12:12:57;0;0;
80628;PMS5003;69983;42.370;-71.210;2024-01-30T12:14:57;0;0;
80628;PMS5003;69983;42.370;-71.210;2024-01-30T12:16:57;0;0;
80628;PMS5003;69983;42.370;-71.210;2024-01-30T12:19:00;0;0;
80628;PMS5003;69983;42.370;-71.210;2024-01-30T12:20:57;0;0;
80628;PMS5003;69983;42.370;-71.210;2024-01-30T12:22:57;0;0;
80628;PMS5003;69983;42.370;-71.210;2024-01-30T12:24:57;0;0;
80628;PMS5003;69983;42.370;-71.210;2024-01-30T12:26:58;0;0;
80628;PMS5003;69983;42.370;-71.210;2024-01-30T12:28:57;0;0;
80628;PMS5003;69983;42.370;-71.210;2024-01-30T12:31:01;0;0;
80628;PMS5003;69983;42.370;-71.210;2024-01-30T12:32:58;0;0;
80628;PMS5003;69983;42.370;-71.210;2024-01-30T12:34:58;0;0;
80628;PMS5003;69983;42.370;-71.210;2024-01-30T12:36:59;0;0;
80628;PMS5003;69983;42.370;-71.210;2024-01-30T12:38:58;0;0;
80628;PMS5003;69983;42.370;-71.210;2024-01-30T12:40:58;0;0;
80628;PMS5003;69983;42.370;-71.210;2024-01-30T12:42:58;0;0;
80628;PMS5003;69983;42.370;-71.210;2024-01-30T12:44:58;0;0;
80628;PMS5003;69983;42.370;-71.210;2024-01-30T12:46:58;0;0;